createdAt,value
2024-03-16T00:02:21.186Z,10.36
2024-03-16T00:04:47.805Z,10.38
2024-03-16T00:07:15.286Z,10.21
2024-03-16T00:09:42.194Z,10.13
2024-03-16T00:12:08.856Z,10.13
2024-03-16T00:14:35.512Z,10.20
2024-03-16T00:17:02.516Z,10.06
2024-03-16T00:19:29.244Z,10.04
2024-03-16T00:21:56.145Z,10.21
2024-03-16T00:24:22.973Z,10.27
2024-03-16T00:26:49.532Z,10.13
2024-03-16T00:29:16.460Z,10.19
2024-03-16T00:31:44.984Z,10.30
2024-03-16T00:34:12.153Z,10.32
2024-03-16T00:36:39.678Z,10.14
2024-03-16T00:39:16.662Z,10.18
2024-03-16T00:41:46.524Z,10.17
2024-03-16T00:44:13.314Z,10.09
2024-03-16T00:46:39.917Z,9.91
2024-03-16T00:49:06.715Z,9.94
2024-03-16T00:51:34.456Z,9.83
2024-03-16T00:54:01.347Z,9.76
2024-03-16T00:56:28.244Z,9.65
2024-03-16T00:58:55.049Z,9.71
2024-03-16T01:01:22.446Z,9.59
2024-03-16T01:03:49.620Z,9.59
2024-03-16T01:06:16.381Z,9.38
2024-03-16T01:08:43.105Z,9.40
2024-03-16T01:11:10.568Z,9.40
2024-03-16T01:13:37.670Z,9.49
2024-03-16T01:16:04.856Z,9.53
2024-03-16T01:18:31.660Z,9.43
2024-03-16T01:20:58.996Z,9.29
2024-03-16T01:23:26.130Z,9.31
2024-03-16T01:25:53.381Z,9.22
2024-03-16T01:28:20.754Z,9.16
2024-03-16T01:30:47.647Z,9.21
2024-03-16T01:33:14.538Z,9.17
2024-03-16T01:35:41.181Z,9.26
2024-03-16T01:38:07.808Z,9.26
2024-03-16T01:40:34.583Z,9.35
2024-03-16T01:43:01.313Z,9.51
2024-03-16T01:45:28.382Z,9.59
2024-03-16T01:47:56.681Z,9.55
2024-03-16T01:50:23.676Z,9.67
2024-03-16T01:52:50.497Z,9.59
2024-03-16T01:55:18.225Z,9.53
2024-03-16T01:57:45.838Z,9.53
2024-03-16T02:00:13.441Z,9.44
2024-03-16T02:02:40.952Z,9.33
2024-03-16T02:05:08.958Z,9.30
2024-03-16T02:07:40.485Z,9.34
2024-03-16T02:10:11.254Z,9.40
2024-03-16T02:12:38.265Z,9.48
2024-03-16T02:15:05.603Z,9.25
2024-03-16T02:17:35.787Z,9.19
2024-03-16T02:20:11.292Z,9.12
2024-03-16T02:22:39.731Z,9.22
2024-03-16T02:25:11.481Z,9.18
2024-03-16T02:27:42.332Z,9.35
2024-03-16T02:30:16.105Z,9.33
2024-03-16T02:32:43.576Z,9.31
2024-03-16T02:35:10.631Z,9.26
2024-03-16T02:37:37.525Z,9.16
2024-03-16T02:40:05.430Z,9.23
2024-03-16T02:42:32.389Z,9.24
2024-03-16T02:44:59.155Z,9.38
2024-03-16T02:47:25.721Z,9.34
2024-03-16T02:49:53.697Z,9.41
2024-03-16T02:52:20.354Z,9.46
2024-03-16T02:54:47.110Z,9.38
2024-03-16T02:57:13.633Z,9.49
2024-03-16T02:59:41.420Z,9.44
2024-03-16T03:02:08.075Z,9.46
2024-03-16T03:04:35.553Z,9.58
2024-03-16T03:07:02.795Z,9.56
2024-03-16T03:09:29.581Z,9.51
2024-03-16T03:11:56.702Z,9.53
2024-03-16T03:14:23.400Z,9.55
2024-03-16T03:16:50.006Z,9.47
2024-03-16T03:19:17.316Z,9.54
2024-03-16T03:21:44.065Z,9.46
2024-03-16T03:24:10.757Z,9.72
2024-03-16T03:26:37.458Z,9.52
2024-03-16T03:29:04.141Z,9.61
2024-03-16T03:31:30.884Z,9.51
2024-03-16T03:33:57.576Z,9.58
2024-03-16T03:36:24.321Z,9.59
2024-03-16T03:38:51.015Z,9.55
2024-03-16T03:41:19.702Z,9.61
2024-03-16T03:43:48.706Z,9.50
2024-03-16T03:46:40.513Z,9.39
2024-03-16T03:49:13.567Z,9.54
2024-03-16T03:51:40.405Z,9.58
2024-03-16T03:54:09.887Z,9.59
2024-03-16T03:56:36.643Z,9.47
2024-03-16T03:59:03.445Z,9.45
2024-03-16T04:01:30.278Z,9.44
2024-03-16T04:03:57.318Z,9.50
2024-03-16T04:06:25.924Z,9.53
2024-03-16T04:08:52.638Z,9.42
2024-03-16T04:11:19.393Z,9.50
2024-03-16T04:13:46.121Z,9.40
2024-03-16T04:16:15.712Z,9.53
2024-03-16T04:18:43.034Z,9.58
2024-03-16T04:21:09.832Z,9.67
2024-03-16T04:23:36.442Z,9.73
2024-03-16T04:26:03.149Z,9.54
2024-03-16T04:28:29.758Z,9.61
2024-03-16T04:30:56.512Z,9.69
2024-03-16T04:33:23.129Z,9.55
2024-03-16T04:35:49.809Z,9.60
2024-03-16T04:38:16.445Z,9.55
2024-03-16T04:40:43.946Z,9.52
2024-03-16T04:43:10.777Z,9.62
2024-03-16T04:45:37.437Z,9.56
2024-03-16T04:48:06.100Z,9.41
2024-03-16T04:50:32.876Z,9.57
2024-03-16T04:52:59.557Z,9.53
2024-03-16T04:55:26.154Z,9.55
2024-03-16T04:57:52.810Z,9.60
2024-03-16T05:00:19.539Z,9.56
2024-03-16T05:02:46.122Z,9.56
2024-03-16T05:05:14.574Z,9.53
2024-03-16T05:07:41.136Z,9.51
2024-03-16T05:10:09.940Z,9.68
2024-03-16T05:12:37.086Z,9.60
2024-03-16T05:15:03.943Z,9.55
2024-03-16T05:17:32.677Z,9.58
2024-03-16T05:19:59.737Z,9.51
2024-03-16T05:22:26.815Z,9.60
2024-03-16T05:24:53.653Z,9.47
2024-03-16T05:27:20.253Z,9.57
2024-03-16T05:29:46.999Z,9.48
2024-03-16T05:32:14.175Z,9.56
2024-03-16T05:34:41.280Z,9.55
2024-03-16T05:37:08.053Z,9.64
2024-03-16T05:39:34.818Z,9.53
2024-03-16T05:42:01.704Z,9.54
2024-03-16T05:44:28.482Z,9.47
2024-03-16T05:46:55.081Z,9.61
2024-03-16T05:49:23.858Z,9.50
2024-03-16T05:51:51.459Z,9.47
2024-03-16T05:54:18.101Z,9.55
2024-03-16T05:56:44.734Z,9.42
2024-03-16T05:59:12.059Z,9.53
2024-03-16T06:01:39.015Z,9.52
2024-03-16T06:04:05.889Z,9.65
2024-03-16T06:06:33.495Z,9.65
2024-03-16T06:09:00.288Z,9.54
2024-03-16T06:11:27.794Z,9.54
2024-03-16T06:13:54.698Z,9.58
2024-03-16T06:16:23.010Z,9.60
2024-03-16T06:18:49.886Z,9.62
2024-03-16T06:21:16.566Z,9.51
2024-03-16T06:23:43.792Z,9.54
2024-03-16T06:26:17.965Z,9.62
2024-03-16T06:28:48.384Z,9.81
2024-03-16T06:31:15.175Z,10.02
2024-03-16T06:33:46.477Z,9.91
2024-03-16T06:36:13.235Z,9.67
2024-03-16T06:38:39.975Z,9.77
2024-03-16T06:41:06.612Z,10.14
2024-03-16T06:43:33.769Z,9.98
2024-03-16T06:46:02.008Z,10.14
2024-03-16T06:48:29.049Z,10.15
2024-03-16T06:50:55.624Z,9.99
2024-03-16T06:53:23.128Z,10.05
2024-03-16T06:55:52.326Z,9.86
2024-03-16T06:58:19.089Z,9.99
2024-03-16T07:00:45.811Z,10.08
2024-03-16T07:03:13.268Z,10.03
2024-03-16T07:05:39.914Z,9.99
2024-03-16T07:08:10.671Z,9.79
2024-03-16T07:10:38.206Z,10.17
2024-03-16T07:13:05.231Z,10.12
2024-03-16T07:15:35.737Z,10.19
2024-03-16T07:18:02.587Z,10.16
2024-03-16T07:20:29.256Z,10.00
2024-03-16T07:22:55.980Z,9.97
2024-03-16T07:25:22.856Z,10.07
2024-03-16T07:27:49.626Z,9.91
2024-03-16T07:30:19.371Z,9.83
2024-03-16T07:32:47.346Z,10.12
2024-03-16T07:35:14.477Z,10.11
2024-03-16T07:37:41.225Z,10.42
2024-03-16T07:40:14.553Z,10.35
2024-03-16T07:42:43.012Z,10.34
2024-03-16T07:45:10.472Z,10.02
2024-03-16T07:47:37.630Z,10.19
2024-03-16T07:50:06.669Z,10.32
2024-03-16T07:52:34.594Z,10.14
2024-03-16T07:55:01.803Z,10.68
2024-03-16T07:57:31.463Z,10.51
2024-03-16T07:59:58.139Z,10.53
2024-03-16T08:02:25.864Z,10.48
2024-03-16T08:04:52.494Z,10.37
2024-03-16T08:07:19.215Z,10.47
2024-03-16T08:09:45.876Z,10.34
2024-03-16T08:12:12.981Z,10.64
2024-03-16T08:14:39.632Z,10.64
2024-03-16T08:17:06.678Z,10.64
2024-03-16T08:19:33.793Z,10.63
2024-03-16T08:22:00.601Z,10.62
2024-03-16T08:24:27.684Z,10.51
2024-03-16T08:26:54.409Z,10.53
2024-03-16T08:29:21.018Z,10.56
2024-03-16T08:31:47.873Z,10.32
2024-03-16T08:34:14.596Z,10.35
2024-03-16T08:36:41.967Z,10.26
2024-03-16T08:39:09.356Z,10.39
2024-03-16T08:41:37.596Z,10.69
2024-03-16T08:44:05.756Z,10.56
2024-03-16T08:46:33.199Z,10.86
2024-03-16T08:49:00.351Z,10.65
2024-03-16T08:51:27.313Z,10.60
2024-03-16T08:53:54.563Z,10.66
2024-03-16T08:56:21.477Z,10.76
2024-03-16T08:58:48.445Z,10.60
2024-03-16T09:01:15.322Z,10.58
2024-03-16T09:03:42.228Z,10.68
2024-03-16T09:06:09.044Z,10.96
2024-03-16T09:08:38.196Z,11.10
2024-03-16T09:11:05.419Z,11.17
2024-03-16T09:13:34.809Z,10.58
2024-03-16T09:16:06.477Z,10.12
2024-03-16T09:18:36.607Z,9.44
2024-03-16T09:21:04.325Z,9.14
2024-03-16T09:23:31.258Z,9.06
2024-03-16T09:25:58.500Z,9.14
2024-03-16T09:28:25.226Z,9.14
2024-03-16T09:30:56.334Z,9.75
2024-03-16T09:33:24.504Z,9.21
2024-03-16T09:35:54.533Z,9.40
2024-03-16T09:38:21.478Z,9.21
2024-03-16T09:40:55.717Z,9.35
